KSLG

Details ICAO KSLG
Name SMITH FLD
Region United States
Timezone America/Chicago (UTC-5.0)
Plans Departing 1
Arriving 6
Stats Elevation 1,193 ft / 364 m (AMSL)
Location 36.191854° -94.489989°
Runways 1
Magnetic Variation 1.680° E
Sunrise 2018-05-21 11:08:52 UTC / 2018-05-21 06:08:52 Local
Sunset 2018-05-22 01:23:07 UTC / 2018-05-21 20:23:07 Local
Advertisement - Login to hide

Runways

ID Width Length Bearing (true) Bearing (mag) Surface Threshold Offset Overrun Length
18 75 ft / 23 m 5,012 ft / 1,528 m 185.30° 183.62° Asphalt 0 ft / 0 m 0 ft / 0 m
36 75 ft / 23 m 5,012 ft / 1,528 m 5.30° 3.62° Asphalt 0 ft / 0 m 0 ft / 0 m

Map

Weather


0- 5 10 15 20 25 30 35+ Temperature / ° C

Clouds and Precipitation
Forecast for 2018-05-21 18:00 UTC. Updated an hour ago

Ground ~20,000 ft ~40,000 ft Winds

METAR

KSLG 211830Z AUTO VRB04KT 10SM SCT024 BKN036 OVC047 25/20 A3007 RMK AO2

TAF

Not found

Frequencies

Recorded 118.37 MHz AWOS 3
Approach 121.00 MHz RAZORBACK APP/DEP
Unicom 122.80 MHz CTAF/UNICOM
Warning: Do not use this data for real-world aviation or navigation. No guarantee of current accuracy is given.